sensor_id;sensor_type;location;lat;lon;timestamp;pressure;altitude;pressure_sealevel;temperature;humidity
74815;BME280;63342;37.558;127.058;2022-09-09T00:04:38;100573.21;;;23.31;45.61
74815;BME280;63342;37.558;127.058;2022-09-09T00:07:15;100564.30;;;23.30;45.73
74815;BME280;63342;37.558;127.058;2022-09-09T00:09:45;100565.97;;;23.32;45.73
74815;BME280;63342;37.558;127.058;2022-09-09T00:15:00;100569.39;;;23.29;45.77
74815;BME280;63342;37.558;127.058;2022-09-09T00:17:39;100574.87;;;23.32;45.66
74815;BME280;63342;37.558;127.058;2022-09-09T00:20:24;100572.94;;;23.30;45.60
74815;BME280;63342;37.558;127.058;2022-09-09T00:22:57;100573.21;;;23.31;45.58
74815;BME280;63342;37.558;127.058;2022-09-09T00:25:39;100561.30;;;23.29;45.66
74815;BME280;63342;37.558;127.058;2022-09-09T00:28:07;100562.95;;;23.30;45.63
74815;BME280;63342;37.558;127.058;2022-09-09T00:30:34;100559.72;;;23.31;45.67
74815;BME280;63342;37.558;127.058;2022-09-09T00:33:10;100564.53;;;23.29;45.58
74815;BME280;63342;37.558;127.058;2022-09-09T00:35:36;100564.00;;;23.29;45.59
74815;BME280;63342;37.558;127.058;2022-09-09T00:38:15;100551.86;;;23.29;45.64
74815;BME280;63342;37.558;127.058;2022-09-09T00:40:51;100555.63;;;23.28;45.67
74815;BME280;63342;37.558;127.058;2022-09-09T00:43:31;100552.63;;;23.27;45.72
74815;BME280;63342;37.558;127.058;2022-09-09T00:49:14;100545.57;;;23.26;45.65
74815;BME280;63342;37.558;127.058;2022-09-09T00:52:08;100547.23;;;23.27;45.69
74815;BME280;63342;37.558;127.058;2022-09-09T00:59:51;100560.41;;;23.26;45.57
74815;BME280;63342;37.558;127.058;2022-09-09T01:05:13;100555.55;;;23.26;45.64
74815;BME280;63342;37.558;127.058;2022-09-09T01:07:43;100559.59;;;23.26;45.57
74815;BME280;63342;37.558;127.058;2022-09-09T01:10:26;100557.20;;;23.27;45.56
74815;BME280;63342;37.558;127.058;2022-09-09T01:12:52;100554.43;;;23.24;45.58
74815;BME280;63342;37.558;127.058;2022-09-09T01:15:24;100556.55;;;23.22;45.63
74815;BME280;63342;37.558;127.058;2022-09-09T01:18:10;100573.84;;;23.24;45.61
74815;BME280;63342;37.558;127.058;2022-09-09T01:26:37;100561.24;;;23.18;45.72
74815;BME280;63342;37.558;127.058;2022-09-09T01:29:12;100554.22;;;23.17;45.84
74815;BME280;63342;37.558;127.058;2022-09-09T01:31:41;100560.20;;;23.19;45.80
74815;BME280;63342;37.558;127.058;2022-09-09T01:34:13;100559.16;;;23.20;45.75
74815;BME280;63342;37.558;127.058;2022-09-09T01:37:02;100560.78;;;23.21;45.72
74815;BME280;63342;37.558;127.058;2022-09-09T01:39:26;100564.33;;;23.21;45.71
74815;BME280;63342;37.558;127.058;2022-09-09T01:41:55;100557.81;;;23.20;45.80
74815;BME280;63342;37.558;127.058;2022-09-09T01:44:24;100551.53;;;23.17;45.85
74815;BME280;63342;37.558;127.058;2022-09-09T01:46:52;100561.24;;;23.18;45.71
74815;BME280;63342;37.558;127.058;2022-09-09T01:49:19;100558.77;;;23.16;45.75
74815;BME280;63342;37.558;127.058;2022-09-09T01:51:53;100563.13;;;23.17;45.77
74815;BME280;63342;37.558;127.058;2022-09-09T01:54:23;100561.24;;;23.18;45.72
74815;BME280;63342;37.558;127.058;2022-09-09T02:02:24;100558.27;;;23.17;45.70
74815;BME280;63342;37.558;127.058;2022-09-09T02:04:58;100557.66;;;23.15;45.70
74815;BME280;63342;37.558;127.058;2022-09-09T02:07:40;100556.84;;;23.14;45.77
74815;BME280;63342;37.558;127.058;2022-09-09T02:10:30;100562.55;;;23.15;45.71
74815;BME280;63342;37.558;127.058;2022-09-09T02:13:07;100558.50;;;23.15;45.77
74815;BME280;63342;37.558;127.058;2022-09-09T02:15:33;100567.41;;;23.16;45.75
74815;BME280;63342;37.558;127.058;2022-09-09T02:18:03;100567.41;;;23.16;45.66
74815;BME280;63342;37.558;127.058;2022-09-09T02:20:32;100569.06;;;23.17;45.67
74815;BME280;63342;37.558;127.058;2022-09-09T02:23:04;100573.03;;;23.14;45.65
74815;BME280;63342;37.558;127.058;2022-09-09T02:25:34;100581.66;;;23.14;45.65
74815;BME280;63342;37.558;127.058;2022-09-09T02:28:05;100579.41;;;23.10;45.72
74815;BME280;63342;37.558;127.058;2022-09-09T02:30:34;100574.83;;;23.11;45.74
74815;BME280;63342;37.558;127.058;2022-09-09T02:33:05;100574.83;;;23.11;45.76
74815;BME280;63342;37.558;127.058;2022-09-09T02:35:34;100578.88;;;23.11;45.71
74815;BME280;63342;37.558;127.058;2022-09-09T02:38:08;100570.25;;;23.11;45.79
74815;BME280;63342;37.558;127.058;2022-09-09T02:40:36;100573.79;;;23.12;45.75
74815;BME280;63342;37.558;127.058;2022-09-09T02:43:03;100567.55;;;23.11;45.68
74815;BME280;63342;37.558;127.058;2022-09-09T02:45:44;100562.70;;;23.11;45.70
74815;BME280;63342;37.558;127.058;2022-09-09T02:48:17;100571.32;;;23.10;45.71
74815;BME280;63342;37.558;127.058;2022-09-09T02:51:15;100567.78;;;23.10;45.72
74815;BME280;63342;37.558;127.058;2022-09-09T02:53:47;100564.23;;;23.09;45.73
74815;BME280;63342;37.558;127.058;2022-09-09T02:56:14;100556.98;;;23.10;45.67
74815;BME280;63342;37.558;127.058;2022-09-09T02:58:42;100566.94;;;23.09;45.67
74815;BME280;63342;37.558;127.058;2022-09-09T03:01:10;100568.28;;;23.09;45.68
74815;BME280;63342;37.558;127.058;2022-09-09T03:03:37;100569.13;;;23.10;45.67
74815;BME280;63342;37.558;127.058;2022-09-09T03:06:06;100569.55;;;23.07;45.69
74815;BME280;63342;37.558;127.058;2022-09-09T03:08:33;100567.78;;;23.10;45.61
74815;BME280;63342;37.558;127.058;2022-09-09T03:11:01;100569.02;;;23.07;45.69
74815;BME280;63342;37.558;127.058;2022-09-09T03:13:28;100572.78;;;23.06;45.64
74815;BME280;63342;37.558;127.058;2022-09-09T03:15:56;100575.76;;;23.07;45.63
74815;BME280;63342;37.558;127.058;2022-09-09T03:18:23;100578.45;;;23.07;45.70
74815;BME280;63342;37.558;127.058;2022-09-09T03:20:51;100582.81;;;23.08;45.61
74815;BME280;63342;37.558;127.058;2022-09-09T03:23:20;100583.34;;;23.08;45.69
74815;BME280;63342;37.558;127.058;2022-09-09T03:25:49;100587.89;;;23.07;45.63
74815;BME280;63342;37.558;127.058;2022-09-09T03:28:17;100593.82;;;23.07;45.57
74815;BME280;63342;37.558;127.058;2022-09-09T03:30:46;100595.09;;;23.04;45.66
74815;BME280;63342;37.558;127.058;2022-09-09T03:33:15;100595.84;;;23.02;45.71
74815;BME280;63342;37.558;127.058;2022-09-09T03:35:46;100596.97;;;23.04;45.69
74815;BME280;63342;37.558;127.058;2022-09-09T03:38:17;100595.63;;;23.04;45.66
74815;BME280;63342;37.558;127.058;2022-09-09T03:40:56;100592.92;;;23.04;45.65
74815;BME280;63342;37.558;127.058;2022-09-09T03:43:28;100591.58;;;23.04;45.71
74815;BME280;63342;37.558;127.058;2022-09-09T03:45:56;100596.16;;;23.03;45.72
74815;BME280;63342;37.558;127.058;2022-09-09T03:48:24;100591.27;;;23.03;45.66
74815;BME280;63342;37.558;127.058;2022-09-09T03:50:54;100595.84;;;23.02;45.65
74815;BME280;63342;37.558;127.058;2022-09-09T03:53:24;100599.59;;;23.01;45.71
74815;BME280;63342;37.558;127.058;2022-09-09T03:55:54;100600.66;;;23.00;45.64
74815;BME280;63342;37.558;127.058;2022-09-09T03:58:23;100607.45;;;23.03;45.60
74815;BME280;63342;37.558;127.058;2022-09-09T04:01:12;100603.94;;;23.02;45.66
74815;BME280;63342;37.558;127.058;2022-09-09T04:03:35;100605.29;;;23.02;45.63
74815;BME280;63342;37.558;127.058;2022-09-09T04:06:04;100599.90;;;23.02;45.64
74815;BME280;63342;37.558;127.058;2022-09-09T04:08:34;100604.48;;;23.02;45.59
74815;BME280;63342;37.558;127.058;2022-09-09T04:11:03;100600.70;;;23.03;45.55
74815;BME280;63342;37.558;127.058;2022-09-09T04:13:34;100599.59;;;23.01;45.65
74815;BME280;63342;37.558;127.058;2022-09-09T04:16:04;100593.07;;;23.00;45.67
74815;BME280;63342;37.558;127.058;2022-09-09T04:18:32;100585.74;;;22.98;45.75
74815;BME280;63342;37.558;127.058;2022-09-09T04:21:01;100587.91;;;22.98;45.62
74815;BME280;63342;37.558;127.058;2022-09-09T04:23:30;100593.30;;;22.98;45.62
74815;BME280;63342;37.558;127.058;2022-09-09T04:25:58;100595.18;;;22.98;45.56
74815;BME280;63342;37.558;127.058;2022-09-09T04:28:28;100596.81;;;22.99;45.59
74815;BME280;63342;37.558;127.058;2022-09-09T04:30:56;100593.07;;;23.00;45.53
74815;BME280;63342;37.558;127.058;2022-09-09T04:33:24;100601.47;;;23.01;45.53
74815;BME280;63342;37.558;127.058;2022-09-09T04:35:56;100602.28;;;23.01;45.50
74815;BME280;63342;37.558;127.058;2022-09-09T04:38:23;100599.31;;;23.00;45.46
74815;BME280;63342;37.558;127.058;2022-09-09T04:40:52;100603.86;;;23.00;45.52
74815;BME280;63342;37.558;127.058;2022-09-09T04:43:20;100607.09;;;22.99;45.48
74815;BME280;63342;37.558;127.058;2022-09-09T04:45:50;100607.59;;;22.99;45.47
74815;BME280;63342;37.558;127.058;2022-09-09T04:48:19;100611.44;;;23.00;45.45
74815;BME280;63342;37.558;127.058;2022-09-09T04:50:59;100605.97;;;22.98;45.48
74815;BME280;63342;37.558;127.058;2022-09-09T04:53:27;100617.03;;;22.99;45.51
74815;BME280;63342;37.558;127.058;2022-09-09T04:56:04;100614.64;;;23.00;45.44
74815;BME280;63342;37.558;127.058;2022-09-09T04:58:32;100617.51;;;23.05;45.35
74815;BME280;63342;37.558;127.058;2022-09-09T05:01:04;100619.90;;;23.04;45.33
74815;BME280;63342;37.558;127.058;2022-09-09T05:03:32;100631.50;;;23.04;45.28
74815;BME280;63342;37.558;127.058;2022-09-09T05:06:05;100635.04;;;23.05;45.28
74815;BME280;63342;37.558;127.058;2022-09-09T05:08:40;100630.15;;;23.04;45.28
74815;BME280;63342;37.558;127.058;2022-09-09T05:11:17;100633.16;;;23.05;45.27
74815;BME280;63342;37.558;127.058;2022-09-09T05:13:45;100632.84;;;23.04;45.22
74815;BME280;63342;37.558;127.058;2022-09-09T05:16:13;100642.59;;;23.05;45.28
74815;BME280;63342;37.558;127.058;2022-09-09T05:18:42;100643.35;;;23.03;45.28
74815;BME280;63342;37.558;127.058;2022-09-09T05:21:10;100636.84;;;23.02;45.30
74815;BME280;63342;37.558;127.058;2022-09-09T05:23:38;100630.32;;;23.00;45.29
74815;BME280;63342;37.558;127.058;2022-09-09T05:26:08;100630.37;;;23.03;45.24
74815;BME280;63342;37.558;127.058;2022-09-09T05:28:36;100620.94;;;23.03;45.27
74815;BME280;63342;37.558;127.058;2022-09-09T05:31:06;100632.03;;;23.04;45.27
74815;BME280;63342;37.558;127.058;2022-09-09T05:33:39;100630.59;;;23.01;45.29
74815;BME280;63342;37.558;127.058;2022-09-09T05:36:11;100633.91;;;23.03;45.27
74815;BME280;63342;37.558;127.058;2022-09-09T05:38:41;100633.69;;;23.05;45.21
74815;BME280;63342;37.558;127.058;2022-09-09T05:41:09;100635.54;;;23.04;45.22
74815;BME280;63342;37.558;127.058;2022-09-09T05:43:43;100630.15;;;23.04;45.19
74815;BME280;63342;37.558;127.058;2022-09-09T05:46:13;100630.99;;;23.05;45.16
74815;BME280;63342;37.558;127.058;2022-09-09T05:48:43;100625.29;;;23.04;45.19
74815;BME280;63342;37.558;127.058;2022-09-09T05:51:15;100629.11;;;23.05;45.15
74815;BME280;63342;37.558;127.058;2022-09-09T05:53:44;100630.15;;;23.04;45.21
74815;BME280;63342;37.558;127.058;2022-09-09T05:56:15;100628.30;;;23.05;45.15
74815;BME280;63342;37.558;127.058;2022-09-09T05:58:44;100630.77;;;23.06;45.14
74815;BME280;63342;37.558;127.058;2022-09-09T06:01:18;100635.09;;;23.07;45.11
74815;BME280;63342;37.558;127.058;2022-09-09T06:03:48;100638.55;;;23.05;45.07
74815;BME280;63342;37.558;127.058;2022-09-09T06:06:23;100644.98;;;23.04;45.14
74815;BME280;63342;37.558;127.058;2022-09-09T06:08:54;100639.31;;;23.03;45.16
74815;BME280;63342;37.558;127.058;2022-09-09T06:11:20;100644.70;;;23.03;45.11
74815;BME280;63342;37.558;127.058;2022-09-09T06:13:49;100648.80;;;23.06;45.12
74815;BME280;63342;37.558;127.058;2022-09-09T06:16:20;100649.34;;;23.05;45.10
74815;BME280;63342;37.558;127.058;2022-09-09T06:18:50;100658.77;;;23.05;45.12
74815;BME280;63342;37.558;127.058;2022-09-09T06:21:22;100660.66;;;23.05;45.08
74815;BME280;63342;37.558;127.058;2022-09-09T06:23:50;100665.83;;;23.06;45.08
74815;BME280;63342;37.558;127.058;2022-09-09T06:26:23;100658.47;;;23.04;45.09
74815;BME280;63342;37.558;127.058;2022-09-09T06:28:53;100657.12;;;23.04;45.10
74815;BME280;63342;37.558;127.058;2022-09-09T06:31:23;100655.27;;;23.05;45.12
74815;BME280;63342;37.558;127.058;2022-09-09T06:33:53;100663.13;;;23.06;45.09
74815;BME280;63342;37.558;127.058;2022-09-09T06:36:23;100656.16;;;23.08;45.07
74815;BME280;63342;37.558;127.058;2022-09-09T06:38:51;100660.83;;;23.10;45.04
74815;BME280;63342;37.558;127.058;2022-09-09T06:41:19;100661.95;;;23.11;44.97
74815;BME280;63342;37.558;127.058;2022-09-09T06:43:48;100671.11;;;23.10;44.99
74815;BME280;63342;37.558;127.058;2022-09-09T06:46:21;100677.02;;;23.10;44.97
74815;BME280;63342;37.558;127.058;2022-09-09T06:48:46;100676.51;;;23.10;44.99
74815;BME280;63342;37.558;127.058;2022-09-09T06:51:20;100675.44;;;23.11;45.12
74815;BME280;63342;37.558;127.058;2022-09-09T06:53:45;100675.17;;;22.94;46.12
74815;BME280;63342;37.558;127.058;2022-09-09T06:56:22;100668.61;;;22.74;47.06
74815;BME280;63342;37.558;127.058;2022-09-09T06:58:48;100672.20;;;22.68;47.52
74815;BME280;63342;37.558;127.058;2022-09-09T07:01:18;100672.20;;;22.68;47.54
74815;BME280;63342;37.558;127.058;2022-09-09T07:03:48;100662.63;;;22.72;47.62
74815;BME280;63342;37.558;127.058;2022-09-09T07:06:19;100663.14;;;22.72;47.88
74815;BME280;63342;37.558;127.058;2022-09-09T07:08:52;100664.13;;;22.77;47.82
74815;BME280;63342;37.558;127.058;2022-09-09T07:11:22;100667.28;;;22.84;47.59
74815;BME280;63342;37.558;127.058;2022-09-09T07:13:51;100665.03;;;22.81;47.78
74815;BME280;63342;37.558;127.058;2022-09-09T07:16:20;100666.55;;;23.04;47.41
74815;BME280;63342;37.558;127.058;2022-09-09T07:18:52;100672.91;;;23.17;47.39
74815;BME280;63342;37.558;127.058;2022-09-09T07:21:20;100671.77;;;22.81;48.29
74815;BME280;63342;37.558;127.058;2022-09-09T07:23:48;100675.80;;;22.46;49.11
74815;BME280;63342;37.558;127.058;2022-09-09T07:26:18;100683.45;;;22.33;49.74
74815;BME280;63342;37.558;127.058;2022-09-09T07:28:49;100675.27;;;22.47;49.42
74815;BME280;63342;37.558;127.058;2022-09-09T07:31:19;100679.05;;;22.55;49.13
74815;BME280;63342;37.558;127.058;2022-09-09T07:33:47;100678.39;;;22.59;49.01
74815;BME280;63342;37.558;127.058;2022-09-09T07:36:22;100676.66;;;22.81;48.52
74815;BME280;63342;37.558;127.058;2022-09-09T07:38:59;100670.91;;;23.05;48.11
74815;BME280;63342;37.558;127.058;2022-09-09T07:41:26;100680.17;;;23.35;47.76
